Terminal Aerodrome Forecast
Issued by NWS

Home | Current Version | Previous Version | Text Only | Print | Product List | Glossary On
Versions: 1 2 3 4 5 6 7 8 9 10 11 12 13
000
FTUS46 KMTR 302339
TAFSTS
TAF
KSTS 302339Z 0100/0124 18008KT P6SM SCT220
     FM010400 16004KT P6SM FEW250
     FM010800 00000KT P6SM SKC
     FM011800 VRB03KT P6SM SKC
     FM012100 19012KT P6SM SKC=

USA.gov is the U.S. government's official web portal to all federal, state and local government web resources and services.